Orpha, Wyoming
Current Conditions -  °F | °C
As of 2:55 PM on Tuesday 25 Nov 2014 (Local Time) from KGUR Reporting Station
Overcast Overcast  
Wind Chill: 45°   Ceiling: 4800
Heat Index: 47°   Visibility: 10mi
Dew Point: 31°   Wind: 6mph
Humidity: 54%   Direction: 90°E
Pressure: 29.86"   Gusts: NA
Location:  42.75°N, 105.38°W
Report Text: KGUR 252155Z AUTO 09005KT 10SM BKN048 OVC060 09/00 A2986 RMK AO2 T00851003
Loading
Personal Weather Stations






























Interactive Weather Map New forecast layout! Learn more

10-Day Weather Forecast

Advertisements
Track Severe Weather on mobile